createdAt,value
2023-02-19T00:01:49.088Z,48.86
2023-02-19T00:04:18.838Z,48.60
2023-02-19T00:06:46.704Z,49.08
2023-02-19T00:09:15.438Z,48.44
2023-02-19T00:11:42.499Z,48.84
2023-02-19T00:14:09.161Z,49.12
2023-02-19T00:16:38.836Z,48.62
2023-02-19T00:19:11.050Z,48.60
2023-02-19T00:21:37.877Z,49.20
2023-02-19T00:24:06.648Z,49.46
2023-02-19T00:26:33.789Z,48.60
2023-02-19T00:29:02.030Z,48.72
2023-02-19T00:31:34.477Z,49.15
2023-02-19T00:34:04.906Z,48.87
2023-02-19T00:36:32.998Z,48.90
2023-02-19T00:38:59.710Z,48.64
2023-02-19T00:41:26.693Z,48.73
2023-02-19T00:43:55.819Z,49.25
2023-02-19T00:46:30.556Z,48.89
2023-02-19T00:48:58.480Z,48.60
2023-02-19T00:51:28.131Z,48.75
2023-02-19T00:53:55.013Z,49.14
2023-02-19T00:56:22.113Z,49.05
2023-02-19T00:58:49.337Z,49.22
2023-02-19T01:01:17.685Z,49.31
2023-02-19T01:03:44.748Z,49.32
2023-02-19T01:06:14.185Z,49.12
2023-02-19T01:08:40.901Z,49.55
2023-02-19T01:11:08.823Z,49.80
2023-02-19T01:13:36.610Z,50.01
2023-02-19T01:16:13.719Z,49.85
2023-02-19T01:18:40.678Z,49.59
2023-02-19T01:21:10.019Z,49.70
2023-02-19T01:23:37.321Z,49.50
2023-02-19T01:26:08.867Z,49.70
2023-02-19T01:28:36.819Z,49.45
2023-02-19T01:31:05.403Z,49.33
2023-02-19T01:33:33.312Z,49.47
2023-02-19T01:36:00.205Z,49.78
2023-02-19T01:38:27.914Z,49.43
2023-02-19T01:40:56.598Z,48.98
2023-02-19T01:43:23.491Z,49.55
2023-02-19T01:45:51.544Z,49.28
2023-02-19T01:48:25.798Z,49.27
2023-02-19T01:50:58.787Z,49.88
2023-02-19T01:53:33.490Z,49.73
2023-02-19T01:56:01.772Z,49.60
2023-02-19T01:58:31.900Z,49.49
2023-02-19T02:01:01.212Z,49.56
2023-02-19T02:03:28.693Z,49.59
2023-02-19T02:06:16.259Z,49.62
2023-02-19T02:09:01.554Z,49.39
2023-02-19T02:11:29.351Z,50.00
2023-02-19T02:14:00.979Z,50.41
2023-02-19T02:16:57.663Z,49.80
2023-02-19T02:19:28.199Z,49.68
2023-02-19T02:22:12.640Z,50.20
2023-02-19T02:25:10.102Z,50.40
2023-02-19T02:27:46.178Z,49.96
2023-02-19T02:30:30.377Z,50.37
2023-02-19T02:33:22.168Z,49.96
2023-02-19T02:35:53.189Z,49.77
2023-02-19T02:38:24.119Z,49.71
2023-02-19T02:40:52.639Z,50.34
2023-02-19T02:43:19.844Z,50.08
2023-02-19T02:45:46.708Z,49.57
2023-02-19T02:48:32.137Z,49.47
2023-02-19T02:51:16.865Z,49.67
2023-02-19T02:54:26.222Z,49.72
2023-02-19T02:56:55.162Z,49.70
2023-02-19T02:59:26.346Z,50.06
2023-02-19T03:02:12.219Z,50.02
2023-02-19T03:05:28.644Z,49.43
2023-02-19T03:08:05.985Z,49.37
2023-02-19T03:10:46.157Z,49.33
2023-02-19T03:13:41.047Z,50.15
2023-02-19T03:16:41.122Z,49.32
2023-02-19T03:19:20.698Z,50.04
2023-02-19T03:21:53.867Z,49.43
2023-02-19T03:24:44.919Z,49.97
2023-02-19T03:27:14.252Z,49.35
2023-02-19T03:29:43.744Z,49.57
2023-02-19T03:32:31.422Z,49.36
2023-02-19T03:35:09.925Z,50.03
2023-02-19T03:37:46.952Z,49.47
2023-02-19T03:40:14.138Z,49.46
2023-02-19T03:42:59.217Z,49.73
2023-02-19T03:45:34.828Z,49.74
2023-02-19T03:48:34.659Z,49.25
2023-02-19T03:51:10.448Z,50.14
2023-02-19T03:53:50.410Z,49.49
2023-02-19T03:56:43.976Z,49.32
2023-02-19T03:59:17.421Z,49.84
2023-02-19T04:01:49.437Z,49.72
2023-02-19T04:04:22.216Z,49.72
2023-02-19T04:06:54.869Z,49.82
2023-02-19T04:09:24.298Z,49.66
2023-02-19T04:11:53.440Z,50.05
2023-02-19T04:14:28.436Z,49.96
2023-02-19T04:17:01.871Z,50.30
2023-02-19T04:19:33.149Z,50.40
2023-02-19T04:22:01.801Z,50.13
2023-02-19T04:24:43.672Z,50.23
2023-02-19T04:27:11.156Z,49.69
2023-02-19T04:29:44.104Z,50.04
2023-02-19T04:32:12.832Z,49.69
2023-02-19T04:34:39.880Z,49.58
2023-02-19T04:37:10.394Z,49.74
2023-02-19T04:39:37.742Z,49.76
2023-02-19T04:42:04.878Z,49.81
2023-02-19T04:44:31.744Z,49.57
2023-02-19T04:46:58.439Z,49.83
2023-02-19T04:49:26.141Z,49.95
2023-02-19T04:51:59.551Z,50.05
2023-02-19T04:54:46.863Z,50.62
2023-02-19T04:57:16.791Z,49.84
2023-02-19T04:59:43.937Z,49.87
2023-02-19T05:02:10.837Z,49.62
2023-02-19T05:04:38.265Z,50.36
2023-02-19T05:07:05.558Z,49.80
2023-02-19T05:09:38.165Z,50.51
2023-02-19T05:12:08.040Z,50.04
2023-02-19T05:14:35.248Z,49.99
2023-02-19T05:17:02.411Z,49.90
2023-02-19T05:19:29.394Z,49.58
2023-02-19T05:21:56.485Z,49.67
2023-02-19T05:24:24.744Z,50.39
2023-02-19T05:26:51.597Z,50.11
2023-02-19T05:29:18.706Z,50.35
2023-02-19T05:31:45.785Z,49.50
2023-02-19T05:34:37.924Z,49.57
2023-02-19T05:37:10.085Z,49.68
2023-02-19T05:39:43.319Z,49.64
2023-02-19T05:42:10.055Z,49.86
2023-02-19T05:44:36.955Z,50.07
2023-02-19T05:47:03.806Z,49.95
2023-02-19T05:49:30.851Z,50.29
2023-02-19T05:52:00.485Z,49.59
2023-02-19T05:54:29.695Z,49.76
2023-02-19T05:56:56.456Z,49.61
2023-02-19T05:59:25.722Z,49.35
2023-02-19T06:01:54.218Z,49.50
2023-02-19T06:04:21.382Z,49.46
2023-02-19T06:06:48.522Z,49.57
2023-02-19T06:09:15.324Z,49.32
2023-02-19T06:11:43.555Z,49.70
2023-02-19T06:14:13.215Z,49.75
2023-02-19T06:16:40.067Z,49.88
2023-02-19T06:19:06.802Z,49.43
2023-02-19T06:21:33.515Z,50.08
2023-02-19T06:24:04.736Z,49.31
2023-02-19T06:26:31.328Z,49.77
2023-02-19T06:28:57.989Z,49.73
2023-02-19T06:31:24.785Z,49.54
2023-02-19T06:33:51.862Z,49.83
2023-02-19T06:36:20.642Z,49.93
2023-02-19T06:38:48.027Z,49.58
2023-02-19T06:41:15.578Z,49.52
2023-02-19T06:43:42.415Z,49.37
2023-02-19T06:46:11.498Z,49.08
2023-02-19T06:48:39.749Z,49.51
2023-02-19T06:51:06.814Z,49.73
2023-02-19T06:53:33.470Z,49.47
2023-02-19T06:56:05.222Z,49.81
2023-02-19T06:58:32.757Z,49.16
2023-02-19T07:00:59.569Z,49.05
2023-02-19T07:03:26.708Z,48.98
2023-02-19T07:05:53.832Z,49.04
2023-02-19T07:08:20.695Z,49.63
2023-02-19T07:10:55.679Z,49.31
2023-02-19T07:13:23.496Z,49.81
2023-02-19T07:15:52.203Z,49.57
2023-02-19T07:18:19.342Z,49.63
2023-02-19T07:20:46.433Z,49.81
2023-02-19T07:23:13.591Z,49.49
2023-02-19T07:25:41.068Z,50.40
2023-02-19T07:28:08.382Z,50.08
2023-02-19T07:30:36.004Z,49.76
2023-02-19T07:33:03.140Z,49.57
2023-02-19T07:35:30.083Z,49.10
2023-02-19T07:37:57.275Z,49.29
2023-02-19T07:40:24.581Z,49.88
2023-02-19T07:42:51.938Z,49.36
2023-02-19T07:45:20.522Z,48.93
2023-02-19T07:47:47.458Z,49.29
2023-02-19T07:50:14.630Z,49.05
2023-02-19T07:52:41.871Z,49.46
2023-02-19T07:55:08.893Z,49.07
2023-02-19T07:57:39.151Z,49.29
2023-02-19T08:00:06.538Z,49.30
2023-02-19T08:02:51.679Z,49.32
2023-02-19T08:05:18.822Z,49.66
2023-02-19T08:07:45.929Z,49.13
2023-02-19T08:10:34.830Z,48.79
2023-02-19T08:13:22.749Z,49.56
2023-02-19T08:16:01.651Z,49.04
2023-02-19T08:18:35.329Z,49.81
2023-02-19T08:21:02.543Z,49.18
2023-02-19T08:23:30.009Z,49.91
2023-02-19T08:26:01.746Z,49.12
2023-02-19T08:28:30.036Z,49.41
2023-02-19T08:31:03.090Z,49.40
2023-02-19T08:33:30.903Z,49.48
2023-02-19T08:36:05.010Z,48.87
2023-02-19T08:38:43.499Z,48.77
2023-02-19T08:41:15.682Z,48.82
2023-02-19T08:43:43.398Z,49.39
2023-02-19T08:46:17.312Z,49.60
2023-02-19T08:48:44.994Z,49.00
2023-02-19T08:51:13.146Z,48.97
2023-02-19T08:53:41.485Z,49.77
2023-02-19T08:56:11.203Z,49.16
2023-02-19T08:58:38.956Z,49.90
2023-02-19T09:01:19.228Z,49.21
2023-02-19T09:03:46.464Z,49.29
2023-02-19T09:06:19.849Z,49.09
2023-02-19T09:08:46.740Z,49.13
2023-02-19T09:11:14.261Z,49.18
2023-02-19T09:13:41.322Z,48.96
2023-02-19T09:16:08.217Z,48.58
2023-02-19T09:18:35.570Z,48.92
2023-02-19T09:21:04.775Z,48.90
2023-02-19T09:23:36.102Z,48.51
2023-02-19T09:26:07.642Z,48.87
2023-02-19T09:28:34.926Z,49.24
2023-02-19T09:31:06.574Z,48.67
2023-02-19T09:33:33.514Z,49.06
2023-02-19T09:36:00.940Z,48.93
2023-02-19T09:38:29.709Z,48.89
2023-02-19T09:41:05.875Z,49.25
2023-02-19T09:43:33.904Z,48.74
2023-02-19T09:46:12.161Z,49.17
2023-02-19T09:48:39.517Z,49.38
2023-02-19T09:51:11.151Z,49.51
2023-02-19T09:53:43.944Z,49.24
2023-02-19T09:56:11.197Z,49.84
2023-02-19T09:58:49.199Z,49.32
2023-02-19T10:01:16.468Z,49.71
2023-02-19T10:03:49.335Z,50.16
2023-02-19T10:06:24.269Z,49.45
2023-02-19T10:09:13.953Z,49.92
2023-02-19T10:11:42.310Z,49.92
2023-02-19T10:14:20.327Z,49.75
2023-02-19T10:16:53.219Z,49.72
2023-02-19T10:19:20.603Z,49.60
2023-02-19T10:21:47.663Z,49.67
2023-02-19T10:24:24.642Z,49.14
2023-02-19T10:26:54.996Z,48.82
2023-02-19T10:29:25.125Z,49.57
2023-02-19T10:32:13.549Z,49.19
2023-02-19T10:34:40.717Z,48.81
2023-02-19T10:37:17.309Z,49.51
2023-02-19T10:39:50.676Z,48.65
2023-02-19T10:42:21.240Z,49.07
2023-02-19T10:44:55.093Z,49.26
2023-02-19T10:47:25.681Z,49.61
2023-02-19T10:49:55.870Z,48.63
2023-02-19T10:52:29.054Z,48.51
2023-02-19T10:55:17.434Z,48.73
2023-02-19T10:57:45.023Z,48.75
2023-02-19T11:00:26.858Z,48.30
2023-02-19T11:03:24.075Z,48.30
2023-02-19T11:06:04.551Z,48.58
2023-02-19T11:08:39.773Z,48.44
2023-02-19T11:11:06.618Z,48.30
2023-02-19T11:13:38.559Z,49.14
2023-02-19T11:16:09.444Z,49.19
2023-02-19T11:18:40.994Z,48.51
2023-02-19T11:24:38.095Z,48.93
2023-02-19T11:27:16.269Z,48.34
2023-02-19T11:29:43.348Z,48.18
2023-02-19T11:32:30.851Z,47.94
2023-02-19T11:35:23.216Z,48.14
2023-02-19T11:37:55.979Z,48.55
2023-02-19T11:40:34.592Z,48.04
2023-02-19T11:43:20.440Z,47.86
2023-02-19T11:45:59.628Z,48.34
2023-02-19T11:48:30.364Z,48.30
2023-02-19T11:51:21.854Z,47.94
2023-02-19T11:54:10.916Z,48.13
2023-02-19T11:56:40.923Z,48.01
2023-02-19T11:59:21.178Z,48.01
2023-02-19T12:02:17.492Z,48.00
2023-02-19T12:04:59.021Z,47.96
2023-02-19T12:08:01.841Z,47.97
2023-02-19T12:11:33.127Z,47.62
2023-02-19T12:14:08.894Z,47.50
2023-02-19T12:17:13.862Z,47.78
2023-02-19T12:20:02.363Z,47.95
2023-02-19T12:22:40.645Z,47.95
2023-02-19T12:25:53.306Z,47.81
2023-02-19T12:43:12.853Z,48.10
2023-02-19T12:45:53.047Z,47.80
2023-02-19T12:49:02.874Z,47.53
2023-02-19T12:54:56.439Z,47.72
2023-02-19T12:58:34.077Z,48.15
2023-02-19T13:01:01.737Z,47.76
2023-02-19T13:03:35.253Z,47.91
2023-02-19T13:06:12.728Z,47.45
2023-02-19T13:09:05.754Z,48.14
2023-02-19T13:11:40.318Z,48.35
2023-02-19T13:14:20.840Z,47.78
2023-02-19T13:16:53.147Z,47.62
2023-02-19T13:19:23.067Z,48.18
2023-02-19T13:22:24.159Z,48.00
2023-02-19T13:24:52.247Z,47.56
2023-02-19T13:27:42.050Z,48.04
2023-02-19T13:30:30.999Z,47.86
2023-02-19T13:33:07.230Z,48.08
2023-02-19T13:36:01.636Z,47.45
2023-02-19T13:38:34.361Z,47.82
2023-02-19T13:41:20.601Z,47.96
2023-02-19T13:44:11.669Z,47.25
2023-02-19T13:46:42.507Z,47.51
2023-02-19T13:49:41.420Z,48.19
2023-02-19T13:52:30.008Z,47.74
2023-02-19T13:55:46.750Z,48.02
2023-02-19T13:58:36.404Z,47.59
2023-02-19T14:01:06.081Z,47.47
2023-02-19T14:04:08.219Z,47.63
2023-02-19T14:07:09.410Z,47.30
2023-02-19T14:10:07.441Z,47.57
2023-02-19T14:12:40.323Z,47.14
2023-02-19T14:15:41.733Z,47.63
2023-02-19T14:18:46.231Z,47.15
2023-02-19T14:25:09.385Z,47.90
2023-02-19T14:27:38.581Z,47.66
2023-02-19T14:30:08.023Z,47.83
2023-02-19T14:32:34.760Z,47.31
2023-02-19T14:35:03.533Z,47.92
2023-02-19T14:37:30.476Z,47.04
2023-02-19T14:40:05.186Z,47.06
2023-02-19T14:42:36.330Z,47.63
2023-02-19T14:45:29.387Z,47.30
2023-02-19T14:51:44.595Z,47.76
2023-02-19T15:01:29.432Z,47.47
2023-02-19T15:04:28.772Z,47.53
2023-02-19T15:10:44.726Z,47.34
2023-02-19T15:13:20.573Z,47.37
2023-02-19T15:16:43.845Z,47.44
2023-02-19T15:19:39.866Z,46.86
2023-02-19T15:22:43.777Z,47.33
2023-02-19T15:25:51.944Z,47.22
2023-02-19T15:29:04.302Z,47.00
2023-02-19T15:31:31.937Z,47.11
2023-02-19T15:34:02.392Z,47.26
2023-02-19T15:36:53.814Z,47.18
2023-02-19T15:40:07.719Z,47.59
2023-02-19T15:42:37.576Z,47.61
2023-02-19T15:45:29.406Z,47.55
2023-02-19T15:48:00.141Z,47.47
2023-02-19T15:50:34.457Z,47.83
2023-02-19T15:53:10.074Z,47.23
2023-02-19T15:55:45.622Z,47.41
2023-02-19T16:04:23.082Z,47.01
2023-02-19T16:06:56.150Z,47.66
2023-02-19T16:09:29.754Z,47.18
2023-02-19T16:11:59.723Z,47.86
2023-02-19T16:14:33.827Z,47.67
2023-02-19T16:17:08.134Z,47.64
2023-02-19T16:19:48.969Z,47.38
2023-02-19T16:22:22.322Z,47.17
2023-02-19T16:24:53.544Z,47.58
2023-02-19T16:27:34.844Z,47.49
2023-02-19T16:30:12.656Z,47.68
2023-02-19T16:32:39.531Z,47.62
2023-02-19T16:35:27.411Z,47.18
2023-02-19T16:37:59.459Z,47.27
2023-02-19T16:40:35.846Z,47.48
2023-02-19T16:43:06.243Z,47.14
2023-02-19T16:45:33.484Z,47.09
2023-02-19T16:48:01.229Z,46.89
2023-02-19T16:50:28.171Z,47.21
2023-02-19T16:53:00.305Z,47.05
2023-02-19T16:55:29.177Z,47.45
2023-02-19T16:57:56.743Z,47.07
2023-02-19T17:00:29.935Z,47.45
2023-02-19T17:02:59.940Z,47.61
2023-02-19T17:05:32.438Z,47.17
2023-02-19T17:07:59.122Z,47.91
2023-02-19T17:10:29.274Z,47.22
2023-02-19T17:12:56.504Z,47.38
2023-02-19T17:15:23.481Z,47.89
2023-02-19T17:17:50.191Z,48.02
2023-02-19T17:20:25.772Z,47.80
2023-02-19T17:22:53.326Z,47.41
2023-02-19T17:25:21.345Z,47.85
2023-02-19T17:27:48.566Z,47.22
2023-02-19T17:30:20.725Z,47.50
2023-02-19T17:32:47.357Z,47.49
2023-02-19T17:35:14.122Z,47.15
2023-02-19T17:37:41.429Z,47.69
2023-02-19T17:40:33.243Z,47.48
2023-02-19T17:43:01.552Z,47.42
2023-02-19T17:45:28.309Z,47.33
2023-02-19T17:47:55.156Z,47.67
2023-02-19T17:50:26.318Z,48.01
2023-02-19T17:52:57.161Z,47.68
2023-02-19T17:55:24.555Z,47.40
2023-02-19T17:57:52.254Z,47.09
2023-02-19T18:00:27.614Z,47.27
2023-02-19T18:02:55.065Z,47.46
2023-02-19T18:05:22.504Z,47.75
2023-02-19T18:07:50.080Z,46.97
2023-02-19T18:10:18.720Z,47.14
2023-02-19T18:12:45.492Z,47.68
2023-02-19T18:15:19.013Z,47.33
2023-02-19T18:17:46.498Z,47.40
2023-02-19T18:20:18.779Z,47.77
2023-02-19T18:22:45.999Z,47.37
2023-02-19T18:25:14.552Z,47.36
2023-02-19T18:27:42.269Z,47.17
2023-02-19T18:30:10.068Z,47.49
2023-02-19T18:32:37.468Z,47.32
2023-02-19T18:35:05.078Z,47.63
2023-02-19T18:37:33.074Z,47.26
2023-02-19T18:40:00.918Z,47.17
2023-02-19T18:42:28.073Z,47.08
2023-02-19T18:44:55.810Z,47.05
2023-02-19T18:47:25.496Z,47.20
2023-02-19T18:49:55.098Z,47.58
2023-02-19T18:52:24.892Z,47.34
2023-02-19T18:54:53.582Z,47.40
2023-02-19T18:57:22.922Z,47.34
2023-02-19T18:59:50.537Z,46.92
2023-02-19T19:02:18.402Z,47.38
2023-02-19T19:04:51.576Z,46.68
2023-02-19T19:07:20.390Z,47.42
2023-02-19T19:09:47.807Z,47.00
2023-02-19T19:12:16.656Z,47.13
2023-02-19T19:14:44.615Z,47.09
2023-02-19T19:17:11.473Z,47.53
2023-02-19T19:19:38.949Z,46.74
2023-02-19T19:22:06.193Z,47.07
2023-02-19T19:24:32.851Z,46.90
2023-02-19T19:26:59.617Z,47.24
2023-02-19T19:29:26.671Z,47.45
2023-02-19T19:31:53.561Z,46.85
2023-02-19T19:34:20.342Z,46.87
2023-02-19T19:36:47.057Z,47.04
2023-02-19T19:39:13.952Z,46.74
2023-02-19T19:41:40.829Z,47.46
2023-02-19T19:44:08.910Z,46.94
2023-02-19T19:46:42.322Z,46.67
2023-02-19T19:49:09.765Z,47.20
2023-02-19T19:51:36.821Z,47.19
2023-02-19T19:54:04.340Z,47.36
2023-02-19T19:56:31.937Z,46.87
2023-02-19T19:58:59.248Z,46.70
2023-02-19T20:01:26.079Z,47.21
2023-02-19T20:03:52.896Z,47.00
2023-02-19T20:06:28.061Z,47.13
2023-02-19T20:09:05.452Z,46.73
2023-02-19T20:11:32.806Z,46.89
2023-02-19T20:14:03.096Z,46.79
2023-02-19T20:16:29.811Z,46.40
2023-02-19T20:18:56.697Z,46.94
2023-02-19T20:21:23.447Z,47.14
2023-02-19T20:23:50.105Z,47.12
2023-02-19T20:26:28.551Z,46.88
2023-02-19T20:28:56.496Z,46.81
2023-02-19T20:31:23.576Z,47.35
2023-02-19T20:33:51.370Z,46.50
2023-02-19T20:36:20.204Z,46.50
2023-02-19T20:38:49.468Z,47.36
2023-02-19T20:41:19.176Z,47.05
2023-02-19T20:43:46.534Z,47.15
2023-02-19T20:46:13.717Z,46.60
2023-02-19T20:48:40.673Z,46.87
2023-02-19T20:51:07.440Z,46.47
2023-02-19T20:53:34.254Z,46.99
2023-02-19T20:56:02.123Z,46.68
2023-02-19T20:58:28.758Z,46.75
2023-02-19T21:00:55.906Z,46.47
2023-02-19T21:03:22.664Z,47.17
2023-02-19T21:05:49.333Z,46.39
2023-02-19T21:08:17.437Z,47.13
2023-02-19T21:10:45.969Z,46.76
2023-02-19T21:13:13.099Z,46.74
2023-02-19T21:15:40.780Z,46.87
2023-02-19T21:18:07.667Z,47.18
2023-02-19T21:20:34.925Z,47.25
2023-02-19T21:23:02.102Z,47.11
2023-02-19T21:25:28.975Z,46.86
2023-02-19T21:27:55.603Z,46.80
2023-02-19T21:30:22.254Z,47.02
2023-02-19T21:32:48.911Z,46.68
2023-02-19T21:35:16.428Z,47.12
2023-02-19T21:37:44.485Z,47.00
2023-02-19T21:40:12.829Z,47.19
2023-02-19T21:42:39.577Z,46.58
2023-02-19T21:45:06.763Z,46.49
2023-02-19T21:47:33.404Z,47.21
2023-02-19T21:50:00.054Z,46.67
2023-02-19T21:52:27.115Z,46.88
2023-02-19T21:54:57.821Z,46.76
2023-02-19T21:57:25.139Z,47.19
2023-02-19T21:59:51.965Z,46.88
2023-02-19T22:02:20.745Z,47.13
2023-02-19T22:04:54.213Z,46.98
2023-02-19T22:07:22.175Z,46.80
2023-02-19T22:09:51.165Z,47.09
2023-02-19T22:12:20.089Z,46.16
2023-02-19T22:14:46.982Z,46.98
2023-02-19T22:17:13.796Z,46.87
2023-02-19T22:19:40.628Z,46.95
2023-02-19T22:22:07.392Z,47.04
2023-02-19T22:24:34.244Z,47.01
2023-02-19T22:27:11.435Z,46.54
2023-02-19T22:29:38.225Z,46.88
2023-02-19T22:32:05.579Z,47.13
2023-02-19T22:34:39.723Z,46.89
2023-02-19T22:37:06.846Z,46.75
2023-02-19T22:39:45.903Z,46.74
2023-02-19T22:42:13.564Z,46.64
2023-02-19T22:44:44.099Z,46.88
2023-02-19T22:47:11.008Z,46.46
2023-02-19T22:49:39.736Z,46.85
2023-02-19T22:52:09.037Z,46.68
2023-02-19T22:54:36.783Z,47.07
2023-02-19T22:57:04.408Z,47.14
2023-02-19T22:59:31.975Z,46.78
2023-02-19T23:01:58.775Z,46.97
2023-02-19T23:04:26.489Z,46.60
2023-02-19T23:06:53.288Z,46.44
2023-02-19T23:09:23.646Z,46.97
2023-02-19T23:11:50.621Z,46.53
2023-02-19T23:14:19.627Z,46.43
2023-02-19T23:16:46.749Z,46.31
2023-02-19T23:19:15.702Z,46.88
2023-02-19T23:21:44.692Z,46.45
2023-02-19T23:24:13.146Z,46.85
2023-02-19T23:26:48.159Z,46.75
2023-02-19T23:29:20.879Z,46.85
2023-02-19T23:31:47.773Z,46.97
2023-02-19T23:34:14.997Z,47.11
2023-02-19T23:36:43.865Z,46.49
2023-02-19T23:39:12.435Z,47.03
2023-02-19T23:41:39.662Z,46.62
2023-02-19T23:44:06.834Z,46.85
2023-02-19T23:46:34.079Z,47.19
2023-02-19T23:49:00.844Z,46.54
2023-02-19T23:51:27.756Z,47.02
2023-02-19T23:53:54.602Z,46.89
2023-02-19T23:56:25.812Z,47.15
2023-02-19T23:58:52.518Z,46.46
